createdAt,value
2019-06-08T00:00:23.540Z,50.33
2019-06-08T00:01:27.078Z,50.29
2019-06-08T00:02:31.274Z,50.26
2019-06-08T00:03:34.791Z,50.12
2019-06-08T00:04:38.974Z,50.43
2019-06-08T00:05:42.541Z,50.57
2019-06-08T00:06:46.596Z,50.44
2019-06-08T00:07:50.212Z,50.44
2019-06-08T00:08:54.372Z,50.33
2019-06-08T00:09:57.895Z,50.33
2019-06-08T00:11:01.995Z,50.36
2019-06-08T00:12:05.607Z,50.28
2019-06-08T00:13:09.625Z,50.20
2019-06-08T00:14:13.178Z,50.41
2019-06-08T00:15:18.635Z,50.45
2019-06-08T00:16:23.633Z,50.40
2019-06-08T00:17:37.960Z,50.31
2019-06-08T00:18:34.110Z,50.24
2019-06-08T00:19:38.227Z,50.29
2019-06-08T00:20:41.763Z,50.57
2019-06-08T00:21:45.804Z,50.89
2019-06-08T00:22:49.274Z,51.10
2019-06-08T00:23:53.373Z,51.26
2019-06-08T00:24:56.977Z,51.41
2019-06-08T00:26:01.070Z,51.29
2019-06-08T00:27:04.585Z,51.23
2019-06-08T00:28:08.680Z,50.98
2019-06-08T00:29:12.231Z,51.04
2019-06-08T00:30:16.410Z,51.04
2019-06-08T00:31:20.178Z,51.01
2019-06-08T00:32:25.334Z,51.06
2019-06-08T00:33:28.777Z,51.02
2019-06-08T00:34:32.896Z,51.14
2019-06-08T00:35:36.508Z,51.27
2019-06-08T00:36:40.646Z,51.39
2019-06-08T00:37:44.152Z,51.37
2019-06-08T00:38:48.171Z,51.23
2019-06-08T00:39:51.675Z,51.30
2019-06-08T00:40:55.725Z,51.27
2019-06-08T00:41:59.314Z,51.15
2019-06-08T00:43:03.354Z,51.03
2019-06-08T00:44:06.943Z,51.01
2019-06-08T00:45:11.958Z,51.41
2019-06-08T00:46:15.534Z,51.22
2019-06-08T00:47:20.515Z,51.37
2019-06-08T00:48:24.657Z,51.17
2019-06-08T00:49:29.129Z,51.32
2019-06-08T00:50:33.490Z,51.46
2019-06-08T00:51:37.513Z,51.37
2019-06-08T00:52:41.037Z,51.26
2019-06-08T00:53:45.198Z,51.43
2019-06-08T00:54:48.783Z,51.25
2019-06-08T00:55:52.896Z,51.20
2019-06-08T00:56:56.489Z,50.98
2019-06-08T00:58:00.651Z,51.13
2019-06-08T00:59:04.240Z,51.46
2019-06-08T01:00:10.522Z,51.56
2019-06-08T01:01:14.083Z,51.58
2019-06-08T01:02:18.331Z,51.32
2019-06-08T01:03:21.847Z,51.32
2019-06-08T01:04:27.147Z,51.24
2019-06-08T01:05:33.093Z,51.08
2019-06-08T01:06:37.265Z,50.87
2019-06-08T01:07:40.792Z,50.93
2019-06-08T01:08:44.897Z,50.93
2019-06-08T01:09:48.426Z,50.81
2019-06-08T01:10:52.795Z,50.71
2019-06-08T01:11:56.611Z,51.17
2019-06-08T01:13:00.740Z,51.39
2019-06-08T01:14:04.434Z,51.17
2019-06-08T01:15:09.472Z,50.84
2019-06-08T01:16:14.679Z,51.17
2019-06-08T01:17:19.295Z,51.15
2019-06-08T01:18:24.567Z,51.32
2019-06-08T01:19:29.619Z,51.29
2019-06-08T01:20:33.449Z,51.28
2019-06-08T01:21:37.819Z,51.10
2019-06-08T01:22:41.415Z,51.48
2019-06-08T01:23:45.609Z,51.17
2019-06-08T01:24:49.242Z,49.87
2019-06-08T01:25:53.835Z,49.66
2019-06-08T01:26:57.496Z,48.74
2019-06-08T01:28:01.664Z,49.18
2019-06-08T01:29:05.565Z,48.70
2019-06-08T01:30:11.561Z,48.17
2019-06-08T01:31:15.025Z,48.27
2019-06-08T01:32:20.257Z,47.25
2019-06-08T01:33:24.457Z,47.41
2019-06-08T01:34:29.021Z,47.49
2019-06-08T01:35:32.709Z,47.55
2019-06-08T01:36:36.895Z,47.45
2019-06-08T01:37:40.419Z,47.45
2019-06-08T01:38:44.443Z,47.38
2019-06-08T01:39:47.993Z,46.87
2019-06-08T01:40:52.071Z,46.65
2019-06-08T01:41:55.627Z,47.06
2019-06-08T01:42:59.727Z,46.79
2019-06-08T01:44:03.362Z,46.56
2019-06-08T01:45:11.524Z,46.78
2019-06-08T01:46:17.066Z,46.76
2019-06-08T01:47:22.127Z,46.24
2019-06-08T01:48:26.238Z,46.16
2019-06-08T01:49:30.581Z,45.95
2019-06-08T01:50:34.226Z,46.18
2019-06-08T01:51:38.359Z,46.07
2019-06-08T01:52:41.816Z,46.03
2019-06-08T01:53:45.985Z,45.64
2019-06-08T01:54:49.499Z,45.76
2019-06-08T01:55:53.525Z,45.34
2019-06-08T01:56:57.073Z,45.33
2019-06-08T01:58:01.258Z,45.18
2019-06-08T01:59:04.851Z,45.14
2019-06-08T02:01:14.915Z,44.89
2019-06-08T02:02:19.116Z,44.92
2019-06-08T02:03:23.824Z,45.00
2019-06-08T02:04:28.172Z,45.01
2019-06-08T02:05:32.529Z,44.87
2019-06-08T02:06:36.817Z,45.07
2019-06-08T02:07:40.345Z,45.07
2019-06-08T02:08:44.466Z,45.19
2019-06-08T02:09:48.066Z,44.98
2019-06-08T02:10:52.283Z,44.88
2019-06-08T02:11:55.876Z,45.04
2019-06-08T02:13:00.016Z,45.16
2019-06-08T02:14:03.838Z,44.99
2019-06-08T02:15:08.725Z,44.82
2019-06-08T02:16:12.242Z,44.93
2019-06-08T02:17:16.324Z,44.74
2019-06-08T02:18:35.529Z,44.91
2019-06-08T02:19:26.660Z,44.83
2019-06-08T02:20:30.823Z,44.89
2019-06-08T02:21:35.018Z,44.78
2019-06-08T02:22:39.377Z,45.01
2019-06-08T02:23:43.566Z,44.82
2019-06-08T02:24:47.029Z,44.71
2019-06-08T02:25:51.207Z,44.63
2019-06-08T02:26:54.805Z,44.61
2019-06-08T02:27:59.070Z,44.72
2019-06-08T02:29:02.746Z,44.82
2019-06-08T02:30:14.485Z,44.85
2019-06-08T02:31:17.986Z,44.99
2019-06-08T02:32:22.080Z,44.85
2019-06-08T02:33:25.524Z,44.95
2019-06-08T02:34:30.752Z,45.06
2019-06-08T02:35:35.950Z,45.14
2019-06-08T02:36:40.935Z,44.98
2019-06-08T02:37:44.415Z,44.65
2019-06-08T02:38:48.534Z,44.91
2019-06-08T02:39:52.126Z,45.01
2019-06-08T02:40:56.296Z,45.19
2019-06-08T02:41:59.739Z,45.27
2019-06-08T02:43:03.908Z,45.25
2019-06-08T02:44:07.515Z,45.15
2019-06-08T02:45:12.282Z,45.17
2019-06-08T02:46:15.852Z,44.90
2019-06-08T02:47:19.951Z,45.07
2019-06-08T02:48:23.469Z,45.09
2019-06-08T02:49:29.033Z,45.06
2019-06-08T02:50:44.530Z,45.18
2019-06-08T02:51:48.709Z,45.18
2019-06-08T02:52:53.018Z,45.30
2019-06-08T02:53:58.455Z,45.27
2019-06-08T02:55:02.142Z,45.26
2019-06-08T02:56:06.287Z,45.09
2019-06-08T02:57:10.896Z,45.08
2019-06-08T02:58:16.949Z,45.23
2019-06-08T02:59:22.811Z,45.31
2019-06-08T03:00:27.049Z,45.33
2019-06-08T03:01:35.753Z,45.37
2019-06-08T03:02:42.527Z,45.09
2019-06-08T03:03:47.664Z,45.12
2019-06-08T03:04:53.496Z,45.08
2019-06-08T03:06:00.016Z,45.48
2019-06-08T03:07:05.553Z,45.51
2019-06-08T03:08:10.836Z,45.24
2019-06-08T03:09:15.624Z,45.40
2019-06-08T03:10:19.206Z,45.41
2019-06-08T03:11:23.310Z,45.31
2019-06-08T03:12:27.278Z,45.42
2019-06-08T03:13:33.570Z,45.38
2019-06-08T03:14:39.702Z,45.45
2019-06-08T03:15:44.342Z,45.36
2019-06-08T03:16:47.954Z,45.25
2019-06-08T03:17:51.982Z,45.30
2019-06-08T03:18:55.503Z,45.25
2019-06-08T03:20:00.698Z,45.18
2019-06-08T03:21:04.200Z,45.22
2019-06-08T03:22:10.756Z,45.33
2019-06-08T03:23:13.436Z,45.28
2019-06-08T03:24:17.561Z,45.35
2019-06-08T03:25:21.082Z,45.43
2019-06-08T03:26:25.105Z,45.43
2019-06-08T03:27:28.569Z,45.43
2019-06-08T03:28:33.183Z,45.31
2019-06-08T03:29:39.111Z,45.30
2019-06-08T03:30:52.316Z,45.29
2019-06-08T03:31:55.547Z,45.17
2019-06-08T03:32:56.789Z,45.02
2019-06-08T03:33:59.903Z,45.17
2019-06-08T03:35:05.047Z,45.38
2019-06-08T03:36:08.590Z,45.46
2019-06-08T03:37:12.738Z,45.71
2019-06-08T03:38:16.169Z,45.73
2019-06-08T03:39:20.263Z,45.67
2019-06-08T03:40:23.805Z,45.75
2019-06-08T03:41:27.846Z,45.85
2019-06-08T03:42:31.290Z,45.76
2019-06-08T03:43:37.397Z,46.07
2019-06-08T03:44:40.553Z,46.18
2019-06-08T03:45:45.437Z,46.16
2019-06-08T03:46:49.008Z,45.80
2019-06-08T03:47:53.111Z,46.07
2019-06-08T03:48:56.576Z,46.23
2019-06-08T03:50:01.684Z,46.30
2019-06-08T03:51:05.204Z,46.33
2019-06-08T03:52:09.234Z,46.17
2019-06-08T03:53:12.748Z,46.21
2019-06-08T03:54:16.785Z,46.18
2019-06-08T03:55:20.422Z,46.17
2019-06-08T03:56:24.529Z,45.94
2019-06-08T03:57:28.082Z,46.04
2019-06-08T03:58:34.186Z,46.17
2019-06-08T03:59:38.535Z,46.42
2019-06-08T04:00:44.442Z,46.49
2019-06-08T04:01:49.866Z,46.44
2019-06-08T04:02:53.855Z,46.50
2019-06-08T04:04:00.112Z,46.70
2019-06-08T04:05:03.125Z,46.70
2019-06-08T04:06:06.721Z,46.52
2019-06-08T04:07:10.853Z,46.43
2019-06-08T04:08:14.368Z,46.36
2019-06-08T04:09:18.450Z,46.43
2019-06-08T04:10:21.876Z,46.52
2019-06-08T04:11:25.988Z,46.63
2019-06-08T04:12:29.495Z,46.88
2019-06-08T04:13:33.608Z,46.81
2019-06-08T04:14:37.866Z,46.82
2019-06-08T04:15:42.637Z,46.75
2019-06-08T04:16:47.259Z,46.73
2019-06-08T04:17:51.377Z,46.68
2019-06-08T04:18:54.798Z,46.65
2019-06-08T04:20:10.215Z,46.66
2019-06-08T04:21:04.104Z,46.65
2019-06-08T04:22:08.296Z,46.66
2019-06-08T04:23:11.883Z,46.41
2019-06-08T04:24:16.014Z,46.28
2019-06-08T04:25:19.674Z,46.57
2019-06-08T04:26:23.864Z,46.37
2019-06-08T04:27:27.381Z,46.68
2019-06-08T04:28:31.480Z,46.78
2019-06-08T04:29:34.919Z,46.69
2019-06-08T04:30:40.940Z,46.87
2019-06-08T04:31:45.915Z,47.19
2019-06-08T04:32:50.083Z,47.08
2019-06-08T04:33:53.655Z,46.98
2019-06-08T04:34:57.827Z,46.82
2019-06-08T04:36:01.404Z,46.78
2019-06-08T04:37:05.449Z,46.81
2019-06-08T04:38:08.976Z,46.77
2019-06-08T04:39:13.147Z,46.71
2019-06-08T04:40:17.138Z,46.66
2019-06-08T04:41:21.228Z,46.71
2019-06-08T04:42:24.835Z,46.82
2019-06-08T04:43:28.854Z,46.78
2019-06-08T04:44:32.289Z,46.84
2019-06-08T04:45:36.401Z,46.96
2019-06-08T04:46:43.037Z,46.79
2019-06-08T04:47:48.250Z,46.72
2019-06-08T04:48:51.886Z,46.50
2019-06-08T04:49:55.958Z,46.95
2019-06-08T04:50:59.423Z,47.10
2019-06-08T04:52:03.488Z,47.10
2019-06-08T04:53:07.034Z,47.06
2019-06-08T04:54:14.438Z,47.07
2019-06-08T04:55:16.519Z,47.07
2019-06-08T04:56:22.697Z,47.06
2019-06-08T04:57:26.404Z,47.01
2019-06-08T04:58:30.473Z,47.09
2019-06-08T04:59:34.059Z,47.00
2019-06-08T05:00:39.103Z,47.15
2019-06-08T05:01:45.000Z,47.31
2019-06-08T05:02:51.098Z,47.23
2019-06-08T05:03:54.312Z,47.08
2019-06-08T05:04:58.495Z,47.09
2019-06-08T05:06:02.220Z,47.17
2019-06-08T05:07:06.447Z,47.21
2019-06-08T05:08:10.001Z,47.21
2019-06-08T05:09:14.075Z,47.24
2019-06-08T05:10:17.838Z,47.34
2019-06-08T05:11:22.114Z,47.27
2019-06-08T05:12:25.765Z,47.22
2019-06-08T05:13:29.974Z,47.18
2019-06-08T05:14:33.582Z,47.38
2019-06-08T05:15:39.100Z,47.42
2019-06-08T05:16:43.210Z,47.38
2019-06-08T05:17:47.653Z,47.54
2019-06-08T05:18:53.884Z,47.61
2019-06-08T05:19:58.148Z,47.85
2019-06-08T05:21:03.236Z,47.80
2019-06-08T05:22:07.637Z,47.84
2019-06-08T05:23:11.429Z,47.74
2019-06-08T05:24:15.833Z,47.81
2019-06-08T05:25:19.424Z,47.76
2019-06-08T05:26:23.545Z,47.91
2019-06-08T05:27:27.129Z,47.80
2019-06-08T05:28:31.439Z,47.72
2019-06-08T05:29:35.075Z,47.68
2019-06-08T05:30:39.406Z,47.64
2019-06-08T05:31:43.539Z,47.71
2019-06-08T05:32:48.032Z,47.70
2019-06-08T05:33:51.611Z,47.84
2019-06-08T05:34:55.737Z,47.61
2019-06-08T05:35:59.284Z,47.68
2019-06-08T05:37:03.389Z,47.60
2019-06-08T05:38:06.835Z,47.78
2019-06-08T05:39:10.930Z,47.72
2019-06-08T05:40:15.036Z,47.76
2019-06-08T05:41:19.371Z,47.76
2019-06-08T05:42:22.814Z,47.69
2019-06-08T05:43:26.839Z,47.70
2019-06-08T05:44:30.279Z,47.61
2019-06-08T05:45:34.441Z,47.54
2019-06-08T05:46:39.592Z,47.59
2019-06-08T05:47:43.958Z,47.40
2019-06-08T05:48:48.022Z,47.55
2019-06-08T05:49:52.148Z,47.64
2019-06-08T05:51:03.577Z,47.62
2019-06-08T05:52:01.711Z,47.65
2019-06-08T05:53:05.406Z,47.64
2019-06-08T05:54:09.457Z,47.74
2019-06-08T05:55:13.526Z,47.71
2019-06-08T05:56:17.857Z,47.67
2019-06-08T05:57:21.561Z,47.71
2019-06-08T05:58:28.571Z,47.72
2019-06-08T05:59:32.086Z,47.66
2019-06-08T06:00:36.540Z,47.50
2019-06-08T06:01:40.427Z,47.41
2019-06-08T06:02:44.818Z,47.31
2019-06-08T06:03:48.846Z,47.45
2019-06-08T06:04:53.960Z,47.60
2019-06-08T06:05:57.596Z,47.70
2019-06-08T06:07:02.138Z,47.74
2019-06-08T06:08:17.999Z,47.92
2019-06-08T06:09:11.878Z,48.32
2019-06-08T06:10:15.746Z,48.26
2019-06-08T06:11:19.841Z,48.18
2019-06-08T06:12:23.574Z,48.15
2019-06-08T06:13:27.902Z,47.95
2019-06-08T06:14:31.639Z,47.91
2019-06-08T06:15:35.861Z,47.99
2019-06-08T06:16:40.808Z,47.91
2019-06-08T06:17:46.669Z,47.92
2019-06-08T06:18:52.154Z,47.95
2019-06-08T06:19:56.304Z,47.81
2019-06-08T06:21:10.483Z,47.70
2019-06-08T06:22:06.093Z,47.71
2019-06-08T06:23:09.826Z,47.67
2019-06-08T06:24:14.025Z,47.52
2019-06-08T06:25:17.619Z,47.68
2019-06-08T06:26:21.879Z,47.73
2019-06-08T06:27:25.520Z,47.74
2019-06-08T06:28:29.429Z,47.87
2019-06-08T06:29:33.164Z,47.96
2019-06-08T06:30:37.330Z,48.00
2019-06-08T06:31:41.644Z,48.02
2019-06-08T06:32:46.096Z,47.97
2019-06-08T06:33:50.060Z,47.93
2019-06-08T06:34:54.190Z,48.23
2019-06-08T06:35:57.826Z,48.47
2019-06-08T06:37:02.110Z,48.31
2019-06-08T06:38:05.671Z,48.19
2019-06-08T06:39:09.968Z,48.15
2019-06-08T06:40:15.504Z,48.15
2019-06-08T06:41:19.937Z,48.27
2019-06-08T06:42:24.977Z,48.23
2019-06-08T06:43:29.270Z,48.19
2019-06-08T06:44:32.934Z,48.29
2019-06-08T06:45:37.211Z,48.18
2019-06-08T06:46:41.855Z,48.17
2019-06-08T06:47:46.481Z,48.09
2019-06-08T06:48:50.419Z,48.02
2019-06-08T06:49:54.661Z,47.98
2019-06-08T06:50:58.188Z,47.95
2019-06-08T06:52:02.534Z,48.00
2019-06-08T06:53:06.200Z,47.90
2019-06-08T06:54:10.699Z,47.87
2019-06-08T06:55:14.373Z,47.86
2019-06-08T06:56:18.629Z,47.87
2019-06-08T06:57:22.288Z,47.77
2019-06-08T06:58:26.712Z,47.78
2019-06-08T06:59:30.143Z,47.89
2019-06-08T07:00:34.473Z,47.64
2019-06-08T07:01:38.622Z,47.58
2019-06-08T07:02:43.565Z,47.65
2019-06-08T07:03:47.978Z,47.56
2019-06-08T07:04:52.314Z,47.62
2019-06-08T07:05:55.925Z,47.59
2019-06-08T07:07:00.227Z,47.77
2019-06-08T07:08:03.864Z,48.00
2019-06-08T07:09:08.104Z,47.97
2019-06-08T07:10:11.846Z,48.15
2019-06-08T07:11:16.349Z,48.34
2019-06-08T07:12:20.031Z,48.19
2019-06-08T07:13:24.298Z,48.29
2019-06-08T07:14:27.908Z,48.50
2019-06-08T07:15:32.149Z,48.66
2019-06-08T07:16:35.667Z,48.42
2019-06-08T07:17:39.993Z,48.34
2019-06-08T07:18:43.579Z,48.28
2019-06-08T07:19:48.314Z,48.35
2019-06-08T07:20:52.384Z,48.41
2019-06-08T07:21:56.482Z,48.54
2019-06-08T07:23:00.045Z,48.59
2019-06-08T07:24:04.405Z,48.58
2019-06-08T07:25:08.308Z,48.55
2019-06-08T07:26:12.666Z,48.59
2019-06-08T07:27:16.171Z,48.75
2019-06-08T07:28:20.284Z,48.77
2019-06-08T07:29:23.991Z,48.64
2019-06-08T07:30:27.909Z,48.80
2019-06-08T07:31:31.557Z,48.83
2019-06-08T07:32:35.650Z,48.71
2019-06-08T07:33:39.344Z,48.48
2019-06-08T07:34:43.494Z,48.31
2019-06-08T07:35:48.717Z,48.25
2019-06-08T07:36:53.465Z,48.29
2019-06-08T07:37:57.100Z,48.22
2019-06-08T07:39:01.228Z,48.02
2019-06-08T07:40:07.682Z,48.29
2019-06-08T07:41:11.786Z,48.06
2019-06-08T07:42:15.310Z,48.04
2019-06-08T07:43:19.450Z,47.97
2019-06-08T07:44:22.934Z,48.08
2019-06-08T07:45:27.092Z,48.22
2019-06-08T07:46:30.594Z,48.22
2019-06-08T07:47:34.697Z,47.79
2019-06-08T07:48:38.181Z,47.92
2019-06-08T07:49:42.200Z,47.89
2019-06-08T07:50:45.820Z,47.65
2019-06-08T07:52:02.567Z,47.67
2019-06-08T07:52:55.182Z,47.83
2019-06-08T07:53:59.910Z,47.80
2019-06-08T07:55:06.257Z,47.98
2019-06-08T07:56:10.765Z,48.29
2019-06-08T07:57:14.621Z,48.39
2019-06-08T07:58:19.409Z,48.41
2019-06-08T07:59:23.385Z,48.14
2019-06-08T08:00:27.790Z,48.10
2019-06-08T08:01:36.310Z,48.23
2019-06-08T08:02:38.107Z,48.19
2019-06-08T08:03:41.989Z,48.17
2019-06-08T08:04:46.442Z,47.79
2019-06-08T08:05:50.461Z,47.58
2019-06-08T08:06:54.754Z,47.64
2019-06-08T08:07:58.995Z,47.52
2019-06-08T08:09:03.487Z,46.92
2019-06-08T08:10:07.818Z,47.20
2019-06-08T08:11:12.207Z,47.28
2019-06-08T08:12:16.014Z,47.04
2019-06-08T08:13:20.331Z,46.88
2019-06-08T08:14:24.232Z,46.91
2019-06-08T08:15:28.766Z,46.90
2019-06-08T08:16:32.466Z,47.05
2019-06-08T08:17:37.132Z,47.13
2019-06-08T08:18:41.016Z,47.23
2019-06-08T08:19:45.600Z,46.91
2019-06-08T08:20:53.010Z,46.30
2019-06-08T08:22:03.150Z,46.79
2019-06-08T08:23:05.998Z,46.80
2019-06-08T08:24:09.482Z,46.98
2019-06-08T08:25:13.560Z,46.60
2019-06-08T08:26:18.007Z,46.58
2019-06-08T08:27:21.698Z,46.17
2019-06-08T08:28:27.953Z,46.34
2019-06-08T08:29:32.406Z,46.48
2019-06-08T08:30:37.699Z,46.13
2019-06-08T08:31:41.797Z,46.04
2019-06-08T08:32:50.786Z,45.99
2019-06-08T08:33:54.655Z,45.41
2019-06-08T08:35:03.192Z,45.54
2019-06-08T08:36:07.479Z,45.73
2019-06-08T08:37:12.153Z,45.76
2019-06-08T08:38:17.738Z,45.79
2019-06-08T08:39:22.349Z,46.01
2019-06-08T08:40:28.205Z,44.78
2019-06-08T08:41:33.045Z,43.98
2019-06-08T08:42:39.760Z,43.81
2019-06-08T08:43:44.080Z,41.63
2019-06-08T08:44:48.627Z,41.80
2019-06-08T08:45:54.085Z,42.22
2019-06-08T08:47:02.388Z,42.46
2019-06-08T08:48:21.489Z,42.12
2019-06-08T08:49:13.082Z,41.81
2019-06-08T08:50:19.323Z,41.65
2019-06-08T08:51:23.326Z,40.85
2019-06-08T08:52:36.420Z,39.45
2019-06-08T08:53:32.761Z,39.78
2019-06-08T08:54:37.693Z,39.81
2019-06-08T08:55:41.694Z,39.27
2019-06-08T08:56:52.190Z,39.21
2019-06-08T08:57:54.802Z,39.41
2019-06-08T08:59:01.491Z,38.95
2019-06-08T09:00:08.532Z,39.29
2019-06-08T09:01:12.979Z,39.59
2019-06-08T09:02:20.719Z,39.42
2019-06-08T09:03:30.944Z,38.84
2019-06-08T09:04:28.134Z,38.74
2019-06-08T09:05:32.349Z,39.23
2019-06-08T09:06:38.097Z,39.16
2019-06-08T09:07:42.612Z,39.34
2019-06-08T09:08:48.542Z,39.09
2019-06-08T09:09:53.558Z,39.31
2019-06-08T09:10:59.610Z,39.37
2019-06-08T09:12:04.577Z,39.05
2019-06-08T09:13:09.274Z,39.41
2019-06-08T09:14:14.573Z,38.90
2019-06-08T09:15:19.240Z,38.72
2019-06-08T09:16:23.824Z,38.50
2019-06-08T09:17:29.158Z,38.52
2019-06-08T09:18:33.895Z,38.47
2019-06-08T09:19:38.378Z,38.84
2019-06-08T09:20:43.145Z,38.35
2019-06-08T09:21:48.180Z,38.52
2019-06-08T09:23:00.769Z,38.48
2019-06-08T09:24:01.054Z,38.86
2019-06-08T09:25:08.621Z,39.08
2019-06-08T09:26:13.074Z,38.55
2019-06-08T09:27:18.144Z,38.84
2019-06-08T09:28:22.180Z,38.38
2019-06-08T09:29:28.887Z,38.16
2019-06-08T09:30:34.055Z,38.29
2019-06-08T09:31:39.220Z,38.30
2019-06-08T09:32:43.125Z,38.29
2019-06-08T09:34:06.731Z,38.27
2019-06-08T09:34:54.650Z,38.13
2019-06-08T09:36:02.401Z,38.00
2019-06-08T09:37:05.800Z,38.31
2019-06-08T09:38:11.172Z,38.51
2019-06-08T09:39:18.367Z,37.86
2019-06-08T09:40:21.731Z,37.79
2019-06-08T09:41:30.770Z,37.83
2019-06-08T09:42:31.744Z,38.30
2019-06-08T09:43:38.585Z,38.20
2019-06-08T09:44:42.170Z,38.19
2019-06-08T09:45:48.369Z,37.78
2019-06-08T09:46:53.607Z,37.84
2019-06-08T09:48:03.636Z,37.79
2019-06-08T09:49:11.023Z,37.80
2019-06-08T09:50:12.254Z,36.92
2019-06-08T09:51:19.689Z,36.38
2019-06-08T09:52:28.141Z,36.40
2019-06-08T09:53:37.683Z,36.66
2019-06-08T09:54:38.562Z,36.82
2019-06-08T09:55:43.236Z,37.26
2019-06-08T09:56:47.914Z,37.35
2019-06-08T09:57:54.517Z,37.63
2019-06-08T09:59:04.024Z,37.45
2019-06-08T10:00:17.814Z,36.91
2019-06-08T10:01:19.322Z,36.91
2019-06-08T10:02:23.653Z,36.78
2019-06-08T10:03:30.851Z,36.34
2019-06-08T10:04:35.146Z,36.24
2019-06-08T10:05:38.960Z,36.18
2019-06-08T10:06:43.122Z,35.28
2019-06-08T10:07:48.759Z,35.11
2019-06-08T10:08:54.292Z,35.71
2019-06-08T10:10:00.442Z,35.57
2019-06-08T10:11:09.006Z,36.04
2019-06-08T10:12:14.997Z,36.53
2019-06-08T10:13:22.321Z,36.38
2019-06-08T10:14:28.189Z,36.38
2019-06-08T10:15:33.468Z,36.06
2019-06-08T10:16:38.165Z,35.69
2019-06-08T10:17:47.668Z,35.29
2019-06-08T10:18:51.890Z,35.02
2019-06-08T10:20:00.226Z,34.95
2019-06-08T10:21:03.426Z,35.08
2019-06-08T10:22:08.664Z,35.25
2019-06-08T10:23:28.148Z,35.09
2019-06-08T10:24:18.861Z,35.30
2019-06-08T10:25:22.652Z,35.88
2019-06-08T10:26:28.243Z,35.94
2019-06-08T10:27:32.081Z,34.69
2019-06-08T10:28:39.796Z,34.08
2019-06-08T10:29:44.517Z,34.04
2019-06-08T10:30:49.415Z,34.72
2019-06-08T10:31:53.378Z,34.87
2019-06-08T10:33:00.487Z,34.59
2019-06-08T10:34:06.151Z,34.19
2019-06-08T10:35:12.689Z,34.70
2019-06-08T10:36:18.264Z,34.71
2019-06-08T10:37:22.629Z,34.30
2019-06-08T10:38:29.028Z,34.24
2019-06-08T10:39:33.707Z,34.02
2019-06-08T10:40:42.610Z,33.88
2019-06-08T10:41:51.256Z,33.52
2019-06-08T10:42:54.028Z,33.31
2019-06-08T10:44:01.489Z,33.94
2019-06-08T10:45:10.389Z,33.53
2019-06-08T10:46:17.167Z,33.92
2019-06-08T10:47:19.800Z,33.71
2019-06-08T10:48:30.420Z,33.46
2019-06-08T10:49:34.560Z,34.23
2019-06-08T10:50:39.425Z,34.22
2019-06-08T10:51:44.607Z,33.95
2019-06-08T10:52:49.248Z,33.61
2019-06-08T10:53:53.965Z,34.13
2019-06-08T10:55:01.541Z,33.85
2019-06-08T10:56:09.619Z,34.00
2019-06-08T10:57:12.681Z,34.18
2019-06-08T10:58:19.376Z,33.72
2019-06-08T10:59:22.955Z,33.48
2019-06-08T11:00:31.722Z,29.74
2019-06-08T11:01:38.902Z,29.00
2019-06-08T11:02:43.132Z,29.49
2019-06-08T11:03:48.882Z,29.71
2019-06-08T11:04:54.876Z,30.63
2019-06-08T11:06:01.254Z,30.34
2019-06-08T11:07:09.651Z,30.42
2019-06-08T11:08:14.474Z,30.62
2019-06-08T11:09:18.933Z,30.53
2019-06-08T11:10:22.591Z,30.52
2019-06-08T11:11:28.407Z,30.49
2019-06-08T11:12:32.222Z,28.50
2019-06-08T11:13:35.803Z,28.82
2019-06-08T11:14:40.815Z,29.20
2019-06-08T11:15:44.540Z,28.57
2019-06-08T11:16:48.717Z,29.29
2019-06-08T11:17:52.296Z,29.72
2019-06-08T11:18:59.098Z,29.58
2019-06-08T11:20:04.273Z,28.50
2019-06-08T11:21:12.536Z,28.15
2019-06-08T11:22:15.021Z,28.66
2019-06-08T11:23:19.563Z,28.80
2019-06-08T11:24:25.115Z,28.95
2019-06-08T11:25:29.234Z,29.58
2019-06-08T11:26:32.894Z,29.75
2019-06-08T11:27:38.761Z,29.89
2019-06-08T11:28:42.479Z,29.78
2019-06-08T11:29:47.743Z,29.23
2019-06-08T11:30:51.193Z,29.42
2019-06-08T11:31:55.349Z,29.63
2019-06-08T11:32:59.998Z,29.30
2019-06-08T11:34:06.061Z,29.79
2019-06-08T11:35:12.331Z,29.79
2019-06-08T11:36:18.572Z,29.78
2019-06-08T11:37:21.318Z,29.64
2019-06-08T11:38:25.534Z,29.47
2019-06-08T11:39:29.067Z,29.89
2019-06-08T11:40:33.116Z,29.33
2019-06-08T11:41:36.694Z,29.85
2019-06-08T11:42:40.870Z,29.96
2019-06-08T11:43:44.461Z,30.03
2019-06-08T11:44:51.128Z,30.20
2019-06-08T11:45:54.271Z,30.01
2019-06-08T11:47:00.313Z,29.28
2019-06-08T11:48:04.676Z,29.62
2019-06-08T11:49:13.482Z,29.55
2019-06-08T11:50:14.844Z,29.00
2019-06-08T11:51:19.216Z,29.05
2019-06-08T11:52:40.812Z,28.89
2019-06-08T11:53:48.182Z,28.95
2019-06-08T11:54:50.496Z,29.27
2019-06-08T11:55:54.986Z,29.06
2019-06-08T11:57:03.345Z,29.25
2019-06-08T11:58:10.452Z,28.61
2019-06-08T11:59:14.507Z,28.82
2019-06-08T12:00:30.181Z,28.46
2019-06-08T12:01:30.230Z,28.27
2019-06-08T12:02:34.423Z,28.37
2019-06-08T12:03:38.761Z,28.46
2019-06-08T12:04:42.941Z,28.84
2019-06-08T12:05:47.809Z,28.77
2019-06-08T12:06:52.408Z,28.77
2019-06-08T12:07:57.843Z,28.32
2019-06-08T12:09:02.703Z,28.12
2019-06-08T12:10:09.058Z,28.48
2019-06-08T12:11:18.162Z,28.47
2019-06-08T12:12:20.511Z,27.87
2019-06-08T12:13:23.597Z,27.82
2019-06-08T12:14:27.069Z,27.61
2019-06-08T12:15:31.113Z,27.72
2019-06-08T12:16:35.073Z,27.35
2019-06-08T12:17:39.248Z,27.31
2019-06-08T12:18:42.954Z,27.55
2019-06-08T12:19:47.631Z,27.61
2019-06-08T12:20:51.437Z,27.90
2019-06-08T12:21:57.867Z,27.31
2019-06-08T12:23:00.882Z,27.79
2019-06-08T12:24:06.204Z,27.67
2019-06-08T12:25:10.333Z,27.50
2019-06-08T12:26:14.692Z,27.57
2019-06-08T12:27:29.152Z,27.67
2019-06-08T12:28:24.084Z,27.20
2019-06-08T12:29:28.384Z,27.39
2019-06-08T12:30:32.656Z,27.45
2019-06-08T12:31:37.844Z,26.85
2019-06-08T12:32:42.048Z,26.85
2019-06-08T12:33:45.693Z,26.89
2019-06-08T12:34:49.809Z,27.07
2019-06-08T12:35:53.463Z,27.30
2019-06-08T12:36:58.288Z,27.13
2019-06-08T12:38:06.218Z,27.10
2019-06-08T12:39:11.842Z,27.40
2019-06-08T12:40:16.857Z,27.32
2019-06-08T12:41:21.742Z,27.24
2019-06-08T12:42:25.310Z,27.47
2019-06-08T12:43:29.487Z,27.45
2019-06-08T12:44:33.075Z,27.75
2019-06-08T12:45:38.137Z,27.95
2019-06-08T12:46:41.741Z,27.66
2019-06-08T12:47:47.778Z,27.41
2019-06-08T12:48:51.435Z,27.95
2019-06-08T12:49:55.452Z,28.29
2019-06-08T12:50:58.913Z,27.64
2019-06-08T12:52:03.252Z,27.33
2019-06-08T12:53:11.230Z,25.88
2019-06-08T12:54:13.072Z,25.77
2019-06-08T12:55:24.727Z,25.33
2019-06-08T12:56:24.419Z,25.68
2019-06-08T12:57:28.647Z,25.07
2019-06-08T12:58:32.727Z,24.08
2019-06-08T12:59:38.314Z,24.51
2019-06-08T13:00:43.394Z,24.49
2019-06-08T13:01:48.420Z,24.75
2019-06-08T13:02:52.655Z,24.34
2019-06-08T13:03:58.138Z,23.45
2019-06-08T13:05:02.060Z,23.41
2019-06-08T13:06:08.860Z,22.85
2019-06-08T13:07:11.951Z,22.87
2019-06-08T13:08:20.072Z,22.83
2019-06-08T13:09:22.393Z,23.40
2019-06-08T13:10:27.749Z,23.21
2019-06-08T13:11:31.886Z,22.99
2019-06-08T13:12:35.851Z,23.07
2019-06-08T13:13:40.018Z,22.87
2019-06-08T13:14:43.645Z,22.16
2019-06-08T13:15:48.543Z,22.93
2019-06-08T13:16:53.214Z,23.40
2019-06-08T13:17:58.655Z,22.15
2019-06-08T13:19:02.305Z,21.82
2019-06-08T13:20:21.833Z,22.45
2019-06-08T13:21:34.153Z,22.43
2019-06-08T13:22:31.411Z,23.05
2019-06-08T13:23:34.296Z,22.81
2019-06-08T13:24:38.404Z,23.07
2019-06-08T13:25:43.914Z,22.95
2019-06-08T13:26:50.406Z,23.58
2019-06-08T13:27:53.188Z,22.71
2019-06-08T13:28:58.277Z,22.62
2019-06-08T13:30:02.551Z,22.28
2019-06-08T13:31:07.867Z,22.19
2019-06-08T13:32:12.032Z,22.23
2019-06-08T13:33:16.310Z,22.12
2019-06-08T13:34:23.789Z,22.26
2019-06-08T13:35:27.387Z,21.58
2019-06-08T13:36:30.602Z,22.02
2019-06-08T13:37:34.682Z,21.69
2019-06-08T13:38:38.565Z,21.78
2019-06-08T13:39:43.126Z,22.99
2019-06-08T13:40:48.434Z,21.82
2019-06-08T13:41:52.686Z,21.70
2019-06-08T13:42:58.195Z,21.85
2019-06-08T13:44:02.102Z,21.13
2019-06-08T13:45:09.962Z,20.33
2019-06-08T13:46:14.188Z,20.33
2019-06-08T13:47:18.934Z,20.56
2019-06-08T13:48:23.562Z,19.74
2019-06-08T13:49:30.554Z,19.80
2019-06-08T13:50:32.988Z,20.83
2019-06-08T13:51:38.290Z,21.23
2019-06-08T13:52:42.456Z,21.23
2019-06-08T13:53:47.855Z,19.85